sensor_id;sensor_type;location;lat;lon;timestamp;P1;durP1;ratioP1;P2;durP2;ratioP2
20725;SDS011;10524;48.132;8.518;2022-12-15T00:01:47;10.00;;;7.30;;
20725;SDS011;10524;48.132;8.518;2022-12-15T00:04:31;12.45;;;7.82;;
20725;SDS011;10524;48.132;8.518;2022-12-15T00:07:15;11.95;;;7.68;;
20725;SDS011;10524;48.132;8.518;2022-12-15T00:09:59;10.05;;;7.10;;
20725;SDS011;10524;48.132;8.518;2022-12-15T00:12:43;10.85;;;7.22;;
20725;SDS011;10524;48.132;8.518;2022-12-15T00:15:27;10.63;;;7.40;;
20725;SDS011;10524;48.132;8.518;2022-12-15T00:18:12;10.70;;;7.22;;
20725;SDS011;10524;48.132;8.518;2022-12-15T00:20:56;9.02;;;6.53;;
20725;SDS011;10524;48.132;8.518;2022-12-15T00:23:41;8.80;;;6.72;;
20725;SDS011;10524;48.132;8.518;2022-12-15T00:26:25;8.63;;;6.72;;
20725;SDS011;10524;48.132;8.518;2022-12-15T00:29:09;7.90;;;6.40;;
20725;SDS011;10524;48.132;8.518;2022-12-15T00:31:53;9.73;;;7.18;;
20725;SDS011;10524;48.132;8.518;2022-12-15T00:34:37;10.00;;;7.53;;
20725;SDS011;10524;48.132;8.518;2022-12-15T00:37:21;12.25;;;8.82;;
20725;SDS011;10524;48.132;8.518;2022-12-15T00:40:05;12.48;;;9.48;;
20725;SDS011;10524;48.132;8.518;2022-12-15T00:42:31;12.90;;;9.52;;
20725;SDS011;10524;48.132;8.518;2022-12-15T00:44:57;14.32;;;10.30;;
20725;SDS011;10524;48.132;8.518;2022-12-15T00:47:23;13.00;;;9.70;;
20725;SDS011;10524;48.132;8.518;2022-12-15T00:49:50;14.00;;;9.73;;
20725;SDS011;10524;48.132;8.518;2022-12-15T00:52:34;14.18;;;10.18;;
20725;SDS011;10524;48.132;8.518;2022-12-15T00:55:19;14.02;;;10.90;;
20725;SDS011;10524;48.132;8.518;2022-12-15T00:58:03;15.45;;;10.98;;
20725;SDS011;10524;48.132;8.518;2022-12-15T01:00:48;16.38;;;11.57;;
20725;SDS011;10524;48.132;8.518;2022-12-15T01:03:32;16.95;;;11.43;;
20725;SDS011;10524;48.132;8.518;2022-12-15T01:06:17;17.88;;;12.32;;
20725;SDS011;10524;48.132;8.518;2022-12-15T01:09:02;17.33;;;12.10;;
20725;SDS011;10524;48.132;8.518;2022-12-15T01:11:48;17.63;;;12.52;;
20725;SDS011;10524;48.132;8.518;2022-12-15T01:14:32;16.83;;;12.05;;
20725;SDS011;10524;48.132;8.518;2022-12-15T01:17:17;20.00;;;13.77;;
20725;SDS011;10524;48.132;8.518;2022-12-15T01:20:02;21.33;;;14.23;;
20725;SDS011;10524;48.132;8.518;2022-12-15T01:22:45;20.85;;;14.40;;
20725;SDS011;10524;48.132;8.518;2022-12-15T01:25:12;20.55;;;13.65;;
20725;SDS011;10524;48.132;8.518;2022-12-15T01:27:39;19.23;;;13.40;;
20725;SDS011;10524;48.132;8.518;2022-12-15T01:30:06;21.25;;;14.40;;
20725;SDS011;10524;48.132;8.518;2022-12-15T01:32:33;20.17;;;13.68;;
20725;SDS011;10524;48.132;8.518;2022-12-15T01:34:58;21.55;;;14.48;;
20725;SDS011;10524;48.132;8.518;2022-12-15T01:37:24;20.35;;;13.90;;
20725;SDS011;10524;48.132;8.518;2022-12-15T01:39:50;20.70;;;14.15;;
20725;SDS011;10524;48.132;8.518;2022-12-15T01:42:34;20.25;;;13.18;;
20725;SDS011;10524;48.132;8.518;2022-12-15T01:47:51;20.38;;;14.80;;
20725;SDS011;10524;48.132;8.518;2022-12-15T01:50:21;23.33;;;15.55;;
20725;SDS011;10524;48.132;8.518;2022-12-15T01:52:48;20.58;;;14.15;;
20725;SDS011;10524;48.132;8.518;2022-12-15T01:55:14;19.77;;;13.63;;
20725;SDS011;10524;48.132;8.518;2022-12-15T01:57:42;19.45;;;13.80;;
20725;SDS011;10524;48.132;8.518;2022-12-15T02:00:08;20.17;;;13.82;;
20725;SDS011;10524;48.132;8.518;2022-12-15T02:02:35;21.38;;;14.25;;
20725;SDS011;10524;48.132;8.518;2022-12-15T02:05:03;23.77;;;15.38;;
20725;SDS011;10524;48.132;8.518;2022-12-15T02:07:29;23.38;;;15.40;;
20725;SDS011;10524;48.132;8.518;2022-12-15T02:09:56;27.63;;;16.58;;
20725;SDS011;10524;48.132;8.518;2022-12-15T02:31:48;25.58;;;16.10;;
20725;SDS011;10524;48.132;8.518;2022-12-15T02:37:13;24.63;;;15.85;;
20725;SDS011;10524;48.132;8.518;2022-12-15T02:39:50;26.55;;;16.60;;
20725;SDS011;10524;48.132;8.518;2022-12-15T02:42:16;26.40;;;16.73;;
20725;SDS011;10524;48.132;8.518;2022-12-15T02:44:52;23.73;;;15.23;;
20725;SDS011;10524;48.132;8.518;2022-12-15T02:47:33;23.65;;;15.88;;
20725;SDS011;10524;48.132;8.518;2022-12-15T02:56:24;25.13;;;15.55;;
20725;SDS011;10524;48.132;8.518;2022-12-15T03:01:30;27.00;;;16.60;;
20725;SDS011;10524;48.132;8.518;2022-12-15T03:04:13;30.02;;;17.85;;
20725;SDS011;10524;48.132;8.518;2022-12-15T03:06:39;29.75;;;17.73;;
20725;SDS011;10524;48.132;8.518;2022-12-15T03:09:05;29.17;;;17.63;;
20725;SDS011;10524;48.132;8.518;2022-12-15T03:11:31;26.67;;;17.30;;
20725;SDS011;10524;48.132;8.518;2022-12-15T03:13:57;30.63;;;18.20;;
20725;SDS011;10524;48.132;8.518;2022-12-15T03:16:22;26.80;;;17.17;;
20725;SDS011;10524;48.132;8.518;2022-12-15T03:18:48;28.75;;;18.02;;
20725;SDS011;10524;48.132;8.518;2022-12-15T03:21:14;27.48;;;16.88;;
20725;SDS011;10524;48.132;8.518;2022-12-15T03:23:39;27.05;;;16.95;;
20725;SDS011;10524;48.132;8.518;2022-12-15T03:26:05;28.10;;;17.73;;
20725;SDS011;10524;48.132;8.518;2022-12-15T03:28:32;30.98;;;18.02;;
20725;SDS011;10524;48.132;8.518;2022-12-15T03:30:58;28.00;;;17.80;;
20725;SDS011;10524;48.132;8.518;2022-12-15T03:33:23;29.38;;;18.23;;
20725;SDS011;10524;48.132;8.518;2022-12-15T03:35:49;29.95;;;18.33;;
20725;SDS011;10524;48.132;8.518;2022-12-15T03:38:15;28.92;;;18.98;;
20725;SDS011;10524;48.132;8.518;2022-12-15T03:40:41;26.95;;;16.95;;
20725;SDS011;10524;48.132;8.518;2022-12-15T03:43:07;25.70;;;16.02;;
20725;SDS011;10524;48.132;8.518;2022-12-15T03:45:32;25.13;;;15.60;;
20725;SDS011;10524;48.132;8.518;2022-12-15T03:47:58;26.33;;;16.88;;
20725;SDS011;10524;48.132;8.518;2022-12-15T03:50:24;25.77;;;16.77;;
20725;SDS011;10524;48.132;8.518;2022-12-15T03:52:53;29.48;;;18.80;;
20725;SDS011;10524;48.132;8.518;2022-12-15T03:55:24;26.70;;;17.27;;
20725;SDS011;10524;48.132;8.518;2022-12-15T03:57:50;27.30;;;17.58;;
20725;SDS011;10524;48.132;8.518;2022-12-15T04:00:16;27.73;;;16.92;;
20725;SDS011;10524;48.132;8.518;2022-12-15T04:02:43;28.77;;;17.15;;
20725;SDS011;10524;48.132;8.518;2022-12-15T04:05:30;28.45;;;17.92;;
20725;SDS011;10524;48.132;8.518;2022-12-15T04:07:58;29.75;;;17.55;;
20725;SDS011;10524;48.132;8.518;2022-12-15T04:10:26;27.85;;;17.80;;
20725;SDS011;10524;48.132;8.518;2022-12-15T04:13:00;29.05;;;18.05;;
20725;SDS011;10524;48.132;8.518;2022-12-15T04:15:28;29.15;;;18.33;;
20725;SDS011;10524;48.132;8.518;2022-12-15T04:17:54;28.33;;;17.60;;
20725;SDS011;10524;48.132;8.518;2022-12-15T04:20:20;31.02;;;17.90;;
20725;SDS011;10524;48.132;8.518;2022-12-15T04:22:47;28.25;;;17.58;;
20725;SDS011;10524;48.132;8.518;2022-12-15T04:25:14;26.20;;;16.33;;
20725;SDS011;10524;48.132;8.518;2022-12-15T04:28:02;27.33;;;17.00;;
20725;SDS011;10524;48.132;8.518;2022-12-15T04:30:50;28.88;;;17.20;;
20725;SDS011;10524;48.132;8.518;2022-12-15T04:33:38;26.52;;;16.90;;
20725;SDS011;10524;48.132;8.518;2022-12-15T04:36:24;25.92;;;16.30;;
20725;SDS011;10524;48.132;8.518;2022-12-15T04:39:09;28.70;;;17.75;;
20725;SDS011;10524;48.132;8.518;2022-12-15T04:41:53;28.02;;;18.05;;
20725;SDS011;10524;48.132;8.518;2022-12-15T04:44:41;29.45;;;17.80;;
20725;SDS011;10524;48.132;8.518;2022-12-15T04:47:25;28.30;;;18.88;;
20725;SDS011;10524;48.132;8.518;2022-12-15T04:50:10;27.27;;;17.42;;
20725;SDS011;10524;48.132;8.518;2022-12-15T04:52:54;28.55;;;17.63;;
20725;SDS011;10524;48.132;8.518;2022-12-15T04:55:38;27.50;;;16.45;;
20725;SDS011;10524;48.132;8.518;2022-12-15T04:58:22;27.80;;;16.92;;
20725;SDS011;10524;48.132;8.518;2022-12-15T05:01:06;27.17;;;17.25;;
20725;SDS011;10524;48.132;8.518;2022-12-15T05:03:50;28.90;;;17.05;;
20725;SDS011;10524;48.132;8.518;2022-12-15T05:06:34;28.25;;;17.50;;
20725;SDS011;10524;48.132;8.518;2022-12-15T05:09:18;27.85;;;17.20;;
20725;SDS011;10524;48.132;8.518;2022-12-15T05:12:03;26.20;;;16.73;;
20725;SDS011;10524;48.132;8.518;2022-12-15T05:14:48;29.65;;;17.70;;
20725;SDS011;10524;48.132;8.518;2022-12-15T05:17:32;27.42;;;16.60;;
20725;SDS011;10524;48.132;8.518;2022-12-15T05:20:16;29.50;;;17.88;;
20725;SDS011;10524;48.132;8.518;2022-12-15T05:23:00;25.33;;;15.77;;
20725;SDS011;10524;48.132;8.518;2022-12-15T05:25:44;30.42;;;18.65;;
20725;SDS011;10524;48.132;8.518;2022-12-15T05:28:28;29.40;;;18.52;;
20725;SDS011;10524;48.132;8.518;2022-12-15T05:31:13;27.23;;;16.60;;
20725;SDS011;10524;48.132;8.518;2022-12-15T05:33:57;28.77;;;17.55;;
20725;SDS011;10524;48.132;8.518;2022-12-15T05:36:23;29.83;;;18.45;;
20725;SDS011;10524;48.132;8.518;2022-12-15T05:38:49;28.05;;;17.08;;
20725;SDS011;10524;48.132;8.518;2022-12-15T05:41:16;30.42;;;17.90;;
20725;SDS011;10524;48.132;8.518;2022-12-15T05:43:43;30.27;;;17.20;;
20725;SDS011;10524;48.132;8.518;2022-12-15T05:46:09;28.95;;;16.83;;
20725;SDS011;10524;48.132;8.518;2022-12-15T05:48:35;28.42;;;17.25;;
20725;SDS011;10524;48.132;8.518;2022-12-15T05:51:04;27.50;;;16.50;;
20725;SDS011;10524;48.132;8.518;2022-12-15T05:53:32;25.73;;;15.70;;
20725;SDS011;10524;48.132;8.518;2022-12-15T05:56:05;31.52;;;17.08;;
20725;SDS011;10524;48.132;8.518;2022-12-15T05:58:33;28.83;;;16.92;;
20725;SDS011;10524;48.132;8.518;2022-12-15T06:01:09;31.35;;;17.83;;
20725;SDS011;10524;48.132;8.518;2022-12-15T06:03:37;31.35;;;18.15;;
20725;SDS011;10524;48.132;8.518;2022-12-15T06:06:04;29.63;;;17.45;;
20725;SDS011;10524;48.132;8.518;2022-12-15T06:08:31;28.00;;;16.92;;
20725;SDS011;10524;48.132;8.518;2022-12-15T06:10:58;29.30;;;17.63;;
20725;SDS011;10524;48.132;8.518;2022-12-15T06:13:25;30.58;;;17.33;;
20725;SDS011;10524;48.132;8.518;2022-12-15T06:15:56;31.83;;;18.00;;
20725;SDS011;10524;48.132;8.518;2022-12-15T06:18:23;30.95;;;17.75;;
20725;SDS011;10524;48.132;8.518;2022-12-15T06:20:55;31.48;;;18.40;;
20725;SDS011;10524;48.132;8.518;2022-12-15T06:23:27;33.10;;;19.00;;
20725;SDS011;10524;48.132;8.518;2022-12-15T06:25:53;35.50;;;19.52;;
20725;SDS011;10524;48.132;8.518;2022-12-15T06:28:21;33.00;;;19.67;;
20725;SDS011;10524;48.132;8.518;2022-12-15T06:30:51;33.67;;;20.02;;
20725;SDS011;10524;48.132;8.518;2022-12-15T06:33:18;35.78;;;19.65;;
20725;SDS011;10524;48.132;8.518;2022-12-15T06:35:46;33.30;;;19.88;;
20725;SDS011;10524;48.132;8.518;2022-12-15T06:38:12;35.38;;;19.90;;
20725;SDS011;10524;48.132;8.518;2022-12-15T06:40:38;35.65;;;20.27;;
20725;SDS011;10524;48.132;8.518;2022-12-15T06:43:05;46.17;;;28.02;;
20725;SDS011;10524;48.132;8.518;2022-12-15T06:45:31;40.63;;;23.30;;
20725;SDS011;10524;48.132;8.518;2022-12-15T06:47:57;32.33;;;18.83;;
20725;SDS011;10524;48.132;8.518;2022-12-15T06:50:23;31.10;;;18.98;;
20725;SDS011;10524;48.132;8.518;2022-12-15T06:52:49;30.30;;;17.92;;
20725;SDS011;10524;48.132;8.518;2022-12-15T06:55:14;31.33;;;18.63;;
20725;SDS011;10524;48.132;8.518;2022-12-15T06:57:40;33.60;;;20.02;;
20725;SDS011;10524;48.132;8.518;2022-12-15T07:00:06;33.45;;;21.17;;
20725;SDS011;10524;48.132;8.518;2022-12-15T07:02:32;43.92;;;30.73;;
20725;SDS011;10524;48.132;8.518;2022-12-15T07:04:58;32.67;;;19.75;;
20725;SDS011;10524;48.132;8.518;2022-12-15T07:07:24;32.97;;;18.40;;
20725;SDS011;10524;48.132;8.518;2022-12-15T07:09:50;31.55;;;18.77;;
20725;SDS011;10524;48.132;8.518;2022-12-15T07:12:16;31.70;;;19.13;;
20725;SDS011;10524;48.132;8.518;2022-12-15T07:14:43;31.17;;;18.50;;
20725;SDS011;10524;48.132;8.518;2022-12-15T07:17:08;29.75;;;18.00;;
20725;SDS011;10524;48.132;8.518;2022-12-15T07:19:35;30.63;;;18.67;;
20725;SDS011;10524;48.132;8.518;2022-12-15T07:22:01;34.90;;;19.48;;
20725;SDS011;10524;48.132;8.518;2022-12-15T07:24:26;31.27;;;19.00;;
20725;SDS011;10524;48.132;8.518;2022-12-15T07:26:52;29.05;;;17.83;;
20725;SDS011;10524;48.132;8.518;2022-12-15T07:29:18;32.20;;;18.92;;
20725;SDS011;10524;48.132;8.518;2022-12-15T07:31:44;31.75;;;19.33;;
20725;SDS011;10524;48.132;8.518;2022-12-15T07:34:10;30.60;;;18.20;;
20725;SDS011;10524;48.132;8.518;2022-12-15T07:36:35;32.83;;;19.38;;
20725;SDS011;10524;48.132;8.518;2022-12-15T07:39:02;28.45;;;17.58;;
20725;SDS011;10524;48.132;8.518;2022-12-15T07:41:29;30.20;;;18.58;;
20725;SDS011;10524;48.132;8.518;2022-12-15T07:43:55;29.17;;;17.92;;
20725;SDS011;10524;48.132;8.518;2022-12-15T07:46:21;31.42;;;17.13;;
20725;SDS011;10524;48.132;8.518;2022-12-15T07:48:48;31.45;;;19.33;;
20725;SDS011;10524;48.132;8.518;2022-12-15T07:51:14;30.45;;;19.15;;
20725;SDS011;10524;48.132;8.518;2022-12-15T07:53:39;32.28;;;19.67;;
20725;SDS011;10524;48.132;8.518;2022-12-15T07:56:05;31.95;;;19.55;;
20725;SDS011;10524;48.132;8.518;2022-12-15T07:58:32;31.02;;;19.48;;
20725;SDS011;10524;48.132;8.518;2022-12-15T08:01:01;34.97;;;20.45;;
20725;SDS011;10524;48.132;8.518;2022-12-15T08:03:28;32.00;;;19.65;;
20725;SDS011;10524;48.132;8.518;2022-12-15T08:05:54;35.17;;;21.13;;
20725;SDS011;10524;48.132;8.518;2022-12-15T08:08:20;35.17;;;20.85;;
20725;SDS011;10524;48.132;8.518;2022-12-15T08:10:46;35.63;;;21.25;;
20725;SDS011;10524;48.132;8.518;2022-12-15T08:13:12;34.50;;;21.20;;
20725;SDS011;10524;48.132;8.518;2022-12-15T08:15:39;34.25;;;19.75;;
20725;SDS011;10524;48.132;8.518;2022-12-15T08:18:05;34.80;;;20.55;;
20725;SDS011;10524;48.132;8.518;2022-12-15T08:20:31;34.55;;;20.52;;
20725;SDS011;10524;48.132;8.518;2022-12-15T08:22:58;37.05;;;20.70;;
20725;SDS011;10524;48.132;8.518;2022-12-15T08:25:24;35.78;;;22.13;;
20725;SDS011;10524;48.132;8.518;2022-12-15T08:27:52;36.38;;;21.55;;
20725;SDS011;10524;48.132;8.518;2022-12-15T08:30:18;34.78;;;21.50;;
20725;SDS011;10524;48.132;8.518;2022-12-15T08:32:44;34.63;;;20.75;;
20725;SDS011;10524;48.132;8.518;2022-12-15T08:35:11;32.67;;;20.50;;
20725;SDS011;10524;48.132;8.518;2022-12-15T08:37:37;32.97;;;20.70;;
20725;SDS011;10524;48.132;8.518;2022-12-15T08:40:03;36.20;;;21.95;;
20725;SDS011;10524;48.132;8.518;2022-12-15T08:42:34;31.85;;;20.42;;
20725;SDS011;10524;48.132;8.518;2022-12-15T08:45:00;32.53;;;20.30;;
20725;SDS011;10524;48.132;8.518;2022-12-15T08:47:26;32.20;;;21.02;;
20725;SDS011;10524;48.132;8.518;2022-12-15T08:49:52;36.05;;;20.40;;
20725;SDS011;10524;48.132;8.518;2022-12-15T08:52:19;32.88;;;19.67;;
20725;SDS011;10524;48.132;8.518;2022-12-15T08:54:45;33.10;;;20.85;;
20725;SDS011;10524;48.132;8.518;2022-12-15T08:57:11;36.22;;;21.50;;
20725;SDS011;10524;48.132;8.518;2022-12-15T08:59:36;35.63;;;22.70;;
20725;SDS011;10524;48.132;8.518;2022-12-15T09:02:02;39.65;;;23.55;;
20725;SDS011;10524;48.132;8.518;2022-12-15T09:04:28;38.67;;;23.02;;
20725;SDS011;10524;48.132;8.518;2022-12-15T09:06:54;38.10;;;22.52;;
20725;SDS011;10524;48.132;8.518;2022-12-15T09:09:19;42.30;;;25.17;;
20725;SDS011;10524;48.132;8.518;2022-12-15T09:11:45;35.97;;;21.00;;
20725;SDS011;10524;48.132;8.518;2022-12-15T09:14:11;39.78;;;23.80;;
20725;SDS011;10524;48.132;8.518;2022-12-15T09:16:36;36.50;;;22.15;;
20725;SDS011;10524;48.132;8.518;2022-12-15T09:19:02;36.60;;;22.38;;
20725;SDS011;10524;48.132;8.518;2022-12-15T09:21:28;37.70;;;22.27;;
20725;SDS011;10524;48.132;8.518;2022-12-15T09:23:56;34.70;;;21.45;;
20725;SDS011;10524;48.132;8.518;2022-12-15T09:26:24;36.03;;;23.15;;
20725;SDS011;10524;48.132;8.518;2022-12-15T09:28:50;36.40;;;22.33;;
20725;SDS011;10524;48.132;8.518;2022-12-15T09:31:26;36.70;;;22.42;;
20725;SDS011;10524;48.132;8.518;2022-12-15T09:33:55;38.63;;;23.42;;
20725;SDS011;10524;48.132;8.518;2022-12-15T09:36:23;38.28;;;22.88;;
20725;SDS011;10524;48.132;8.518;2022-12-15T09:38:49;42.92;;;24.90;;
20725;SDS011;10524;48.132;8.518;2022-12-15T09:41:26;42.33;;;25.02;;
20725;SDS011;10524;48.132;8.518;2022-12-15T09:44:09;42.40;;;25.20;;
20725;SDS011;10524;48.132;8.518;2022-12-15T09:46:49;41.60;;;24.38;;
20725;SDS011;10524;48.132;8.518;2022-12-15T09:52:15;42.15;;;24.42;;
20725;SDS011;10524;48.132;8.518;2022-12-15T09:55:07;42.20;;;25.83;;
20725;SDS011;10524;48.132;8.518;2022-12-15T09:57:51;41.78;;;24.85;;
20725;SDS011;10524;48.132;8.518;2022-12-15T10:05:56;47.45;;;26.83;;
20725;SDS011;10524;48.132;8.518;2022-12-15T10:08:35;43.45;;;25.40;;
20725;SDS011;10524;48.132;8.518;2022-12-15T10:11:21;45.05;;;26.63;;
20725;SDS011;10524;48.132;8.518;2022-12-15T10:19:58;43.67;;;25.38;;
20725;SDS011;10524;48.132;8.518;2022-12-15T10:25:13;44.92;;;25.60;;
20725;SDS011;10524;48.132;8.518;2022-12-15T10:30:30;44.25;;;24.90;;
20725;SDS011;10524;48.132;8.518;2022-12-15T10:35:45;44.08;;;26.98;;
20725;SDS011;10524;48.132;8.518;2022-12-15T10:41:00;42.10;;;24.92;;
20725;SDS011;10524;48.132;8.518;2022-12-15T10:43:29;42.67;;;25.40;;
20725;SDS011;10524;48.132;8.518;2022-12-15T10:45:59;41.78;;;25.38;;
20725;SDS011;10524;48.132;8.518;2022-12-15T10:48:25;46.17;;;26.60;;
20725;SDS011;10524;48.132;8.518;2022-12-15T10:50:51;42.08;;;25.27;;
20725;SDS011;10524;48.132;8.518;2022-12-15T10:54:20;43.53;;;25.80;;
20725;SDS011;10524;48.132;8.518;2022-12-15T10:56:29;41.97;;;25.75;;
20725;SDS011;10524;48.132;8.518;2022-12-15T10:59:00;44.80;;;25.10;;
20725;SDS011;10524;48.132;8.518;2022-12-15T11:01:29;43.53;;;25.60;;
20725;SDS011;10524;48.132;8.518;2022-12-15T11:03:57;44.90;;;25.60;;
20725;SDS011;10524;48.132;8.518;2022-12-15T11:06:24;43.92;;;25.92;;
20725;SDS011;10524;48.132;8.518;2022-12-15T11:08:53;47.28;;;26.48;;
20725;SDS011;10524;48.132;8.518;2022-12-15T11:14:18;47.22;;;26.92;;
20725;SDS011;10524;48.132;8.518;2022-12-15T11:17:06;44.50;;;26.77;;
20725;SDS011;10524;48.132;8.518;2022-12-15T11:19:39;51.03;;;27.63;;
20725;SDS011;10524;48.132;8.518;2022-12-15T11:22:25;47.30;;;26.60;;
20725;SDS011;10524;48.132;8.518;2022-12-15T11:27:46;49.92;;;26.30;;
20725;SDS011;10524;48.132;8.518;2022-12-15T11:30:49;52.85;;;27.35;;
20725;SDS011;10524;48.132;8.518;2022-12-15T11:33:13;49.67;;;27.17;;
20725;SDS011;10524;48.132;8.518;2022-12-15T11:40:46;51.15;;;28.83;;
20725;SDS011;10524;48.132;8.518;2022-12-15T11:51:43;69.72;;;36.95;;
20725;SDS011;10524;48.132;8.518;2022-12-15T11:57:28;56.13;;;31.15;;
20725;SDS011;10524;48.132;8.518;2022-12-15T12:00:12;54.00;;;29.08;;
20725;SDS011;10524;48.132;8.518;2022-12-15T12:05:13;57.83;;;29.50;;
20725;SDS011;10524;48.132;8.518;2022-12-15T12:14:20;59.25;;;32.25;;
20725;SDS011;10524;48.132;8.518;2022-12-15T12:19:42;59.13;;;32.38;;
20725;SDS011;10524;48.132;8.518;2022-12-15T12:22:48;58.80;;;32.63;;
20725;SDS011;10524;48.132;8.518;2022-12-15T12:25:14;61.65;;;32.17;;
20725;SDS011;10524;48.132;8.518;2022-12-15T12:30:19;61.78;;;31.98;;
20725;SDS011;10524;48.132;8.518;2022-12-15T12:33:07;64.15;;;31.65;;
20725;SDS011;10524;48.132;8.518;2022-12-15T12:35:56;63.75;;;31.38;;
20725;SDS011;10524;48.132;8.518;2022-12-15T12:38:29;59.25;;;31.65;;
20725;SDS011;10524;48.132;8.518;2022-12-15T12:41:22;69.10;;;32.97;;
20725;SDS011;10524;48.132;8.518;2022-12-15T12:44:16;64.63;;;31.83;;
20725;SDS011;10524;48.132;8.518;2022-12-15T12:46:56;64.13;;;30.67;;
20725;SDS011;10524;48.132;8.518;2022-12-15T12:49:37;61.33;;;31.48;;
20725;SDS011;10524;48.132;8.518;2022-12-15T12:52:22;61.85;;;29.90;;
20725;SDS011;10524;48.132;8.518;2022-12-15T12:55:04;59.55;;;30.10;;
20725;SDS011;10524;48.132;8.518;2022-12-15T13:03:43;62.78;;;32.05;;
20725;SDS011;10524;48.132;8.518;2022-12-15T13:06:19;64.75;;;31.35;;
20725;SDS011;10524;48.132;8.518;2022-12-15T13:14:25;64.80;;;32.60;;
20725;SDS011;10524;48.132;8.518;2022-12-15T13:22:27;67.90;;;33.20;;
20725;SDS011;10524;48.132;8.518;2022-12-15T13:24:57;81.30;;;36.80;;
20725;SDS011;10524;48.132;8.518;2022-12-15T13:27:37;77.07;;;37.35;;
20725;SDS011;10524;48.132;8.518;2022-12-15T13:30:13;72.25;;;35.55;;
20725;SDS011;10524;48.132;8.518;2022-12-15T13:32:46;64.35;;;31.50;;
20725;SDS011;10524;48.132;8.518;2022-12-15T13:35:21;69.95;;;33.63;;
20725;SDS011;10524;48.132;8.518;2022-12-15T13:37:54;75.47;;;36.08;;
20725;SDS011;10524;48.132;8.518;2022-12-15T13:43:44;70.30;;;34.72;;
20725;SDS011;10524;48.132;8.518;2022-12-15T13:45:57;68.35;;;33.25;;
20725;SDS011;10524;48.132;8.518;2022-12-15T13:50:55;69.35;;;32.58;;
20725;SDS011;10524;48.132;8.518;2022-12-15T13:53:27;71.90;;;34.17;;
20725;SDS011;10524;48.132;8.518;2022-12-15T13:56:13;75.95;;;34.22;;
20725;SDS011;10524;48.132;8.518;2022-12-15T13:58:49;73.05;;;34.03;;
20725;SDS011;10524;48.132;8.518;2022-12-15T14:01:23;84.70;;;38.00;;
20725;SDS011;10524;48.132;8.518;2022-12-15T14:04:25;78.00;;;37.72;;
20725;SDS011;10524;48.132;8.518;2022-12-15T14:09:13;76.00;;;33.60;;
20725;SDS011;10524;48.132;8.518;2022-12-15T14:11:41;82.78;;;37.72;;
20725;SDS011;10524;48.132;8.518;2022-12-15T14:14:15;81.47;;;36.60;;
20725;SDS011;10524;48.132;8.518;2022-12-15T14:16:43;79.07;;;35.67;;
20725;SDS011;10524;48.132;8.518;2022-12-15T14:19:13;81.32;;;35.53;;
20725;SDS011;10524;48.132;8.518;2022-12-15T14:21:50;87.70;;;38.03;;
20725;SDS011;10524;48.132;8.518;2022-12-15T14:24:21;80.50;;;34.80;;
20725;SDS011;10524;48.132;8.518;2022-12-15T14:26:52;89.82;;;40.55;;
20725;SDS011;10524;48.132;8.518;2022-12-15T14:29:18;83.13;;;37.15;;
20725;SDS011;10524;48.132;8.518;2022-12-15T14:31:45;78.93;;;35.05;;
20725;SDS011;10524;48.132;8.518;2022-12-15T14:34:17;80.18;;;35.78;;
20725;SDS011;10524;48.132;8.518;2022-12-15T14:36:44;82.90;;;36.00;;
20725;SDS011;10524;48.132;8.518;2022-12-15T14:39:52;84.40;;;35.92;;
20725;SDS011;10524;48.132;8.518;2022-12-15T14:42:06;77.65;;;35.67;;
20725;SDS011;10524;48.132;8.518;2022-12-15T14:44:38;84.38;;;37.33;;
20725;SDS011;10524;48.132;8.518;2022-12-15T14:47:19;91.57;;;37.17;;
20725;SDS011;10524;48.132;8.518;2022-12-15T14:49:48;81.10;;;36.47;;
20725;SDS011;10524;48.132;8.518;2022-12-15T14:52:20;92.13;;;36.70;;
20725;SDS011;10524;48.132;8.518;2022-12-15T14:54:56;88.15;;;37.85;;
20725;SDS011;10524;48.132;8.518;2022-12-15T14:57:27;93.75;;;38.05;;
20725;SDS011;10524;48.132;8.518;2022-12-15T15:05:43;98.07;;;40.45;;
20725;SDS011;10524;48.132;8.518;2022-12-15T15:08:14;107.07;;;45.45;;
20725;SDS011;10524;48.132;8.518;2022-12-15T15:10:49;103.90;;;42.47;;
20725;SDS011;10524;48.132;8.518;2022-12-15T15:13:18;95.43;;;39.85;;
20725;SDS011;10524;48.132;8.518;2022-12-15T15:15:54;99.90;;;40.67;;
20725;SDS011;10524;48.132;8.518;2022-12-15T15:18:25;95.90;;;38.22;;
20725;SDS011;10524;48.132;8.518;2022-12-15T15:20:57;94.40;;;37.30;;
20725;SDS011;10524;48.132;8.518;2022-12-15T15:23:28;106.60;;;42.42;;
20725;SDS011;10524;48.132;8.518;2022-12-15T15:25:55;95.93;;;37.75;;
20725;SDS011;10524;48.132;8.518;2022-12-15T15:28:25;101.43;;;38.65;;
20725;SDS011;10524;48.132;8.518;2022-12-15T15:30:56;100.22;;;38.15;;
20725;SDS011;10524;48.132;8.518;2022-12-15T15:33:29;119.70;;;44.53;;
20725;SDS011;10524;48.132;8.518;2022-12-15T15:35:56;175.35;;;53.08;;
20725;SDS011;10524;48.132;8.518;2022-12-15T15:40:51;99.03;;;39.45;;
20725;SDS011;10524;48.132;8.518;2022-12-15T15:43:22;93.47;;;37.25;;
20725;SDS011;10524;48.132;8.518;2022-12-15T15:45:49;100.70;;;39.22;;
20725;SDS011;10524;48.132;8.518;2022-12-15T15:48:30;101.78;;;41.70;;
20725;SDS011;10524;48.132;8.518;2022-12-15T15:51:06;100.72;;;38.78;;
20725;SDS011;10524;48.132;8.518;2022-12-15T15:53:32;113.50;;;38.92;;
20725;SDS011;10524;48.132;8.518;2022-12-15T15:55:58;102.22;;;38.33;;
20725;SDS011;10524;48.132;8.518;2022-12-15T15:58:25;124.40;;;39.15;;
20725;SDS011;10524;48.132;8.518;2022-12-15T16:00:50;109.55;;;39.30;;
20725;SDS011;10524;48.132;8.518;2022-12-15T16:03:17;104.90;;;39.72;;
20725;SDS011;10524;48.132;8.518;2022-12-15T16:05:43;110.00;;;39.28;;
20725;SDS011;10524;48.132;8.518;2022-12-15T16:08:13;108.78;;;39.65;;
20725;SDS011;10524;48.132;8.518;2022-12-15T16:10:45;126.00;;;40.85;;
20725;SDS011;10524;48.132;8.518;2022-12-15T16:13:13;104.22;;;38.60;;
20725;SDS011;10524;48.132;8.518;2022-12-15T16:15:41;105.63;;;40.10;;
20725;SDS011;10524;48.132;8.518;2022-12-15T16:18:07;111.18;;;39.42;;
20725;SDS011;10524;48.132;8.518;2022-12-15T16:20:32;115.25;;;42.58;;
20725;SDS011;10524;48.132;8.518;2022-12-15T16:23:01;118.57;;;42.20;;
20725;SDS011;10524;48.132;8.518;2022-12-15T16:25:32;122.45;;;42.25;;
20725;SDS011;10524;48.132;8.518;2022-12-15T16:28:13;114.30;;;40.97;;
20725;SDS011;10524;48.132;8.518;2022-12-15T16:30:41;124.07;;;41.67;;
20725;SDS011;10524;48.132;8.518;2022-12-15T16:33:07;121.47;;;44.28;;
20725;SDS011;10524;48.132;8.518;2022-12-15T16:35:33;135.02;;;42.75;;
20725;SDS011;10524;48.132;8.518;2022-12-15T16:38:01;121.15;;;45.00;;
20725;SDS011;10524;48.132;8.518;2022-12-15T16:40:30;141.75;;;44.72;;
20725;SDS011;10524;48.132;8.518;2022-12-15T16:43:01;136.23;;;47.58;;
20725;SDS011;10524;48.132;8.518;2022-12-15T16:45:28;116.38;;;43.10;;
20725;SDS011;10524;48.132;8.518;2022-12-15T16:47:55;132.60;;;45.60;;
20725;SDS011;10524;48.132;8.518;2022-12-15T16:50:28;159.48;;;56.17;;
20725;SDS011;10524;48.132;8.518;2022-12-15T16:52:58;197.00;;;46.85;;
20725;SDS011;10524;48.132;8.518;2022-12-15T16:55:24;159.77;;;51.50;;
20725;SDS011;10524;48.132;8.518;2022-12-15T16:57:59;137.48;;;43.72;;
20725;SDS011;10524;48.132;8.518;2022-12-15T17:00:27;151.68;;;48.95;;